Aviation Digital Data Service (ADDS)

Output produced by METARs form (1806 UTC 24 June 2019)
found at http://www.aviationweather.gov/metar/data/
 
METAR text: RJAF 240700Z 08003KT 350V120 9999 -TSRA FEW010 SCT030 FEW030CB BKN050 19/15 Q1012
Conditions at: RJAF (MATSUMOTO AIRPOR, JP) observed 0700 UTC 24 June 2019
Temperature: 19.0°C (66°F)
Dewpoint: 15.0°C (59°F) [RH = 78%]
Pressure (altimeter): 29.88 inches Hg (1012.0 mb)
Winds: from the E (80 degrees) at 3 MPH (3 knots; 1.5 m/s)
Visibility: 6 or more miles (10+ km)
Ceiling: 5000 feet AGL
Clouds: few clouds at 1000 feet AGL
scattered clouds at 3000 feet AGL
few clouds at 3000 feet AGL
broken clouds at 5000 feet AGL
Weather: -TSRA  (light rain associated with thunderstorm(s))

METAR text: RJAF 240600Z 30003KT 250V360 9999 -TSRA FEW003 SCT025 FEW030CB BKN060 18/16 Q1011
Conditions at: RJAF (MATSUMOTO AIRPOR, JP) observed 0600 UTC 24 June 2019
Temperature: 18.0°C (64°F)
Dewpoint: 16.0°C (61°F) [RH = 88%]
Pressure (altimeter): 29.85 inches Hg (1011.0 mb)
Winds: from the WNW (300 degrees) at 3 MPH (3 knots; 1.5 m/s)
Visibility: 6 or more miles (10+ km)
Ceiling: 6000 feet AGL
Clouds: few clouds at 300 feet AGL
scattered clouds at 2500 feet AGL
few clouds at 3000 feet AGL
broken clouds at 6000 feet AGL
Weather: -TSRA  (light rain associated with thunderstorm(s))

METAR text: RJAF 240507Z 32003KT 270V350 9999 -TSRA FEW015 SCT020 BKN040 FEW040CB 19/15 Q1011 RMK 1ST015 3CU020 5CU040 1CB040 A2987 FBL TS 20KM SW MOV NE
Conditions at: RJAF (MATSUMOTO AIRPOR, JP) observed 0507 UTC 24 June 2019
Temperature: 19.0°C (66°F)
Dewpoint: 15.0°C (59°F) [RH = 78%]
Pressure (altimeter): 29.85 inches Hg (1011.0 mb)
Winds: from the NW (320 degrees) at 3 MPH (3 knots; 1.5 m/s)
Visibility: 6 or more miles (10+ km)
Ceiling: 4000 feet AGL
Clouds: few clouds at 1500 feet AGL
scattered clouds at 2000 feet AGL
broken clouds at 4000 feet AGL
few clouds at 4000 feet AGL
Weather: -TSRA  (light rain associated with thunderstorm(s))

METAR text: RJAF 240500Z 32004KT 270V360 9999 -SHRA FEW015 SCT020 BKN040 FEW040TCU 19/16 Q1011
Conditions at: RJAF (MATSUMOTO AIRPOR, JP) observed 0500 UTC 24 June 2019
Temperature: 19.0°C (66°F)
Dewpoint: 16.0°C (61°F) [RH = 83%]
Pressure (altimeter): 29.85 inches Hg (1011.0 mb)
Winds: from the NW (320 degrees) at 5 MPH (4 knots; 2.1 m/s)
Visibility: 6 or more miles (10+ km)
Ceiling: 4000 feet AGL
Clouds: few clouds at 1500 feet AGL
scattered clouds at 2000 feet AGL
broken clouds at 4000 feet AGL
few clouds at 4000 feet AGL
Weather: -SHRA  (light rain showers)

METAR text: RJAF 240400Z VRB01KT 9999 FEW015 SCT020 BKN050 19/16 Q1011
Conditions at: RJAF (MATSUMOTO AIRPOR, JP) observed 0400 UTC 24 June 2019
Temperature: 19.0°C (66°F)
Dewpoint: 16.0°C (61°F) [RH = 83%]
Pressure (altimeter): 29.85 inches Hg (1011.0 mb)
Winds: variable direction winds at 1 MPH (1 knots; 0.5 m/s)
Visibility: 6 or more miles (10+ km)
Ceiling: 5000 feet AGL
Clouds: few clouds at 1500 feet AGL
scattered clouds at 2000 feet AGL
broken clouds at 5000 feet AGL
Weather: no significant weather observed at this time

METAR text: RJAF 240300Z VRB02KT 9999 -SHRA FEW006 SCT020 BKN030 18/15 Q1011
Conditions at: RJAF (MATSUMOTO AIRPOR, JP) observed 0300 UTC 24 June 2019
Temperature: 18.0°C (64°F)
Dewpoint: 15.0°C (59°F) [RH = 83%]
Pressure (altimeter): 29.85 inches Hg (1011.0 mb)
Winds: variable direction winds at 2 MPH (2 knots; 1.0 m/s)
Visibility: 6 or more miles (10+ km)
Ceiling: 3000 feet AGL
Clouds: few clouds at 600 feet AGL
scattered clouds at 2000 feet AGL
broken clouds at 3000 feet AGL
Weather: -SHRA  (light rain showers)

METAR text: RJAF 240200Z 34003KT 300V020 9999 -SHRA FEW006 SCT010 BKN030 18/16 Q1011
Conditions at: RJAF (MATSUMOTO AIRPOR, JP) observed 0200 UTC 24 June 2019
Temperature: 18.0°C (64°F)
Dewpoint: 16.0°C (61°F) [RH = 88%]
Pressure (altimeter): 29.85 inches Hg (1011.0 mb)
Winds: from the NNW (340 degrees) at 3 MPH (3 knots; 1.5 m/s)
Visibility: 6 or more miles (10+ km)
Ceiling: 3000 feet AGL
Clouds: few clouds at 600 feet AGL
scattered clouds at 1000 feet AGL
broken clouds at 3000 feet AGL
Weather: -SHRA  (light rain showers)

METAR text: RJAF 240100Z 34004KT 9999 -SHRA FEW006 SCT010 BKN020 17/15 Q1011
Conditions at: RJAF (MATSUMOTO AIRPOR, JP) observed 0100 UTC 24 June 2019
Temperature: 17.0°C (63°F)
Dewpoint: 15.0°C (59°F) [RH = 88%]
Pressure (altimeter): 29.85 inches Hg (1011.0 mb)
Winds: from the NNW (340 degrees) at 5 MPH (4 knots; 2.1 m/s)
Visibility: 6 or more miles (10+ km)
Ceiling: 2000 feet AGL
Clouds: few clouds at 600 feet AGL
scattered clouds at 1000 feet AGL
broken clouds at 2000 feet AGL
Weather: -SHRA  (light rain showers)

METAR text: RJAF 240000Z 33006KT 9999 -SHRA FEW006 SCT010 BKN017 17/15 Q1011
Conditions at: RJAF (MATSUMOTO AIRPOR, JP) observed 0000 UTC 24 June 2019
Temperature: 17.0°C (63°F)
Dewpoint: 15.0°C (59°F) [RH = 88%]
Pressure (altimeter): 29.85 inches Hg (1011.0 mb)
Winds: from the NNW (330 degrees) at 7 MPH (6 knots; 3.1 m/s)
Visibility: 6 or more miles (10+ km)
Ceiling: 1700 feet AGL
Clouds: few clouds at 600 feet AGL
scattered clouds at 1000 feet AGL
broken clouds at 1700 feet AGL
Weather: -SHRA  (light rain showers)

METAR text: RJAF 232330Z 35005KT 9999 -SHRA FEW007 BKN014 BKN020 17/15 Q1010
Conditions at: RJAF (MATSUMOTO AIRPOR, JP) observed 2330 UTC 23 June 2019
Temperature: 17.0°C (63°F)
Dewpoint: 15.0°C (59°F) [RH = 88%]
Pressure (altimeter): 29.82 inches Hg (1010.0 mb)
Winds: from the N (350 degrees) at 6 MPH (5 knots; 2.6 m/s)
Visibility: 6 or more miles (10+ km)
Ceiling: 1400 feet AGL
Clouds: few clouds at 700 feet AGL
broken clouds at 1400 feet AGL
broken clouds at 2000 feet AGL
Weather: -SHRA  (light rain showers)

METAR text: RJAF 232310Z 34004KT 310V020 9999 -SHRA FEW005 BKN012 BKN017 16/15 Q1011 RMK 2ST005 5ST012 7CU017 A2986
Conditions at: RJAF (MATSUMOTO AIRPOR, JP) observed 2310 UTC 23 June 2019
Temperature: 16.0°C (61°F)
Dewpoint: 15.0°C (59°F) [RH = 94%]
Pressure (altimeter): 29.85 inches Hg (1011.0 mb)
Winds: from the NNW (340 degrees) at 5 MPH (4 knots; 2.1 m/s)
Visibility: 6 or more miles (10+ km)
Ceiling: 1200 feet AGL
Clouds: few clouds at 500 feet AGL
broken clouds at 1200 feet AGL
broken clouds at 1700 feet AGL
Weather: -SHRA  (light rain showers)

METAR text: RJAF 230719Z 35017KT 9999 -SHRA FEW010 SCT025 BKN035 18/16 Q1006 RMK 1ST010 3CU025 7CU035 A2971
Conditions at: RJAF (MATSUMOTO AIRPOR, JP) observed 0719 UTC 23 June 2019
Temperature: 18.0°C (64°F)
Dewpoint: 16.0°C (61°F) [RH = 88%]
Pressure (altimeter): 29.70 inches Hg (1006.0 mb)
Winds: from the N (350 degrees) at 20 MPH (17 knots; 8.7 m/s)
Visibility: 6 or more miles (10+ km)
Ceiling: 3500 feet AGL
Clouds: few clouds at 1000 feet AGL
scattered clouds at 2500 feet AGL
broken clouds at 3500 feet AGL
Weather: -SHRA  (light rain showers)

METAR text: RJAF 230700Z 34017KT 9999 -TSRA FEW020 BKN035 FEW035CB 19/16 Q1005
Conditions at: RJAF (MATSUMOTO AIRPOR, JP) observed 0700 UTC 23 June 2019
Temperature: 19.0°C (66°F)
Dewpoint: 16.0°C (61°F) [RH = 83%]
Pressure (altimeter): 29.68 inches Hg (1005.0 mb)
Winds: from the NNW (340 degrees) at 20 MPH (17 knots; 8.7 m/s)
Visibility: 6 or more miles (10+ km)
Ceiling: 3500 feet AGL
Clouds: few clouds at 2000 feet AGL
broken clouds at 3500 feet AGL
few clouds at 3500 feet AGL
Weather: -TSRA  (light rain associated with thunderstorm(s))